createdAt,value
2023-04-03T00:03:27.532Z,103291.91
2023-04-03T00:08:24.033Z,103293.13
2023-04-03T00:13:20.436Z,103297.56
2023-04-03T00:18:16.868Z,103300.00
2023-04-03T00:23:13.298Z,103299.91
2023-04-03T00:28:09.852Z,103310.28
2023-04-03T00:33:06.358Z,103308.47
2023-04-03T00:38:02.784Z,103306.22
2023-04-03T00:43:00.437Z,103306.88
2023-04-03T00:47:57.820Z,103308.44
2023-04-03T00:52:55.191Z,103311.22
2023-04-03T00:57:53.167Z,103316.69
2023-04-03T01:08:20.061Z,103326.22
2023-04-03T01:13:23.257Z,103321.66
2023-04-03T01:18:20.385Z,103311.69
2023-04-03T01:23:32.652Z,103316.47
2023-04-03T01:28:32.486Z,103308.31
2023-04-03T01:33:28.965Z,103310.91
2023-04-03T01:38:25.388Z,103312.66
2023-04-03T01:43:21.770Z,103320.06
2023-04-03T01:48:18.223Z,103307.16
2023-04-03T01:53:14.736Z,103313.72
2023-04-03T01:58:11.164Z,103321.47
2023-04-03T02:03:07.815Z,103328.91
2023-04-03T02:08:04.740Z,103332.59
2023-04-03T02:13:01.427Z,103325.91
2023-04-03T02:17:57.990Z,103325.47
2023-04-03T02:22:54.501Z,103324.81
2023-04-03T02:27:51.065Z,103327.88
2023-04-03T02:32:47.908Z,103331.28
2023-04-03T02:37:44.335Z,103335.56
2023-04-03T02:42:41.061Z,103334.88
2023-04-03T02:47:37.499Z,103340.00
2023-04-03T02:52:34.064Z,103337.38
2023-04-03T02:57:30.840Z,103334.03
2023-04-03T03:02:27.405Z,103333.69
2023-04-03T03:07:23.929Z,103336.78
2023-04-03T03:12:22.585Z,103341.19
2023-04-03T03:17:19.288Z,103347.53
2023-04-03T03:22:15.967Z,103344.53
2023-04-03T03:27:13.075Z,103337.53
2023-04-03T03:32:09.663Z,103343.59
2023-04-03T03:37:06.094Z,103332.53
2023-04-03T03:42:02.683Z,103340.59
2023-04-03T03:46:59.395Z,103338.31
2023-04-03T03:51:56.136Z,103342.97
2023-04-03T03:56:53.886Z,103351.66
2023-04-03T04:01:50.335Z,103343.81
2023-04-03T04:06:47.016Z,103348.69
2023-04-03T04:11:43.509Z,103345.00
2023-04-03T04:16:40.250Z,103341.00
2023-04-03T04:21:36.706Z,103347.72
2023-04-03T04:26:33.125Z,103349.44
2023-04-03T04:31:29.678Z,103353.44
2023-04-03T04:36:26.497Z,103357.00
2023-04-03T04:41:24.015Z,103360.88
2023-04-03T04:46:20.779Z,103367.25
2023-04-03T04:51:17.227Z,103376.97
2023-04-03T04:56:13.719Z,103386.16
2023-04-03T05:01:11.414Z,103381.63
2023-04-03T05:06:08.213Z,103391.50
2023-04-03T05:11:04.682Z,103398.00
2023-04-03T05:16:01.104Z,103398.50
2023-04-03T05:20:58.675Z,103398.00
2023-04-03T05:25:55.245Z,103407.56
2023-04-03T05:30:56.698Z,103406.72
2023-04-03T05:35:54.110Z,103403.16
2023-04-03T05:40:50.706Z,103405.06
2023-04-03T05:45:48.652Z,103421.78
2023-04-03T05:50:45.166Z,103424.66
2023-04-03T05:55:41.565Z,103419.41
2023-04-03T06:00:37.988Z,103424.44
2023-04-03T06:05:34.405Z,103418.06
2023-04-03T06:10:31.367Z,103421.03
2023-04-03T06:15:28.177Z,103422.88
2023-04-03T06:20:25.339Z,103429.88
2023-04-03T06:25:22.045Z,103424.25
2023-04-03T06:30:18.562Z,103436.44
2023-04-03T06:35:15.168Z,103435.72
2023-04-03T06:40:23.155Z,103429.75
2023-04-03T06:45:20.493Z,103436.75
2023-04-03T06:50:17.001Z,103435.94
2023-04-03T06:55:13.522Z,103441.28
2023-04-03T07:00:11.812Z,103446.41
2023-04-03T07:05:09.870Z,103448.09
2023-04-03T07:10:07.480Z,103447.53
2023-04-03T07:15:05.139Z,103447.59
2023-04-03T07:20:01.589Z,103449.94
2023-04-03T07:24:58.050Z,103453.44
2023-04-03T07:29:55.603Z,103459.25
2023-04-03T07:34:53.017Z,103457.34
2023-04-03T07:39:49.874Z,103448.50
2023-04-03T07:44:46.585Z,103446.38
2023-04-03T07:49:44.732Z,103443.25
2023-04-03T07:54:41.183Z,103439.19
2023-04-03T07:59:37.618Z,103437.38
2023-04-03T08:04:34.204Z,103439.34
2023-04-03T08:09:30.732Z,103441.06
2023-04-03T08:14:27.445Z,103441.56
2023-04-03T08:19:26.626Z,103433.91
2023-04-03T08:24:23.417Z,103433.91
2023-04-03T08:29:19.880Z,103435.03
2023-04-03T08:34:16.400Z,103432.56
2023-04-03T08:39:13.593Z,103432.59
2023-04-03T08:44:17.331Z,103430.50
2023-04-03T08:49:25.651Z,103432.16
2023-04-03T08:54:29.557Z,103419.25
2023-04-03T08:59:30.757Z,103422.59
2023-04-03T09:04:28.810Z,103421.94
2023-04-03T09:09:42.944Z,103415.25
2023-04-03T09:14:42.024Z,103418.09
2023-04-03T09:20:21.292Z,103424.34
2023-04-03T09:25:22.460Z,103404.44
2023-04-03T09:30:24.580Z,103409.03
2023-04-03T09:35:39.960Z,103405.06
2023-04-03T09:40:46.564Z,103409.56
2023-04-03T09:45:43.706Z,103399.78
2023-04-03T09:51:00.281Z,103392.75
2023-04-03T09:55:57.383Z,103398.69
2023-04-03T10:00:59.752Z,103387.06
2023-04-03T10:05:56.321Z,103381.09
2023-04-03T10:11:17.869Z,103378.44
2023-04-03T10:16:18.514Z,103369.00
2023-04-03T10:21:47.754Z,103374.34
2023-04-03T10:27:03.670Z,103363.25
2023-04-03T10:32:26.901Z,103361.56
2023-04-03T10:37:50.620Z,103360.69
2023-04-03T10:43:27.838Z,103356.16
2023-04-03T10:48:40.943Z,103349.75
2023-04-03T10:53:46.234Z,103342.28
2023-04-03T10:58:58.877Z,103343.13
2023-04-03T11:04:00.181Z,103345.56
2023-04-03T11:09:28.091Z,103336.69
2023-04-03T11:14:35.953Z,103324.38
2023-04-03T11:19:50.867Z,103312.09
2023-04-03T11:25:07.432Z,103309.13
2023-04-03T11:30:08.923Z,103305.66
2023-04-03T11:35:08.288Z,103301.09
2023-04-03T11:40:16.542Z,103303.34
2023-04-03T11:45:27.985Z,103298.97
2023-04-03T11:50:42.657Z,103301.47
2023-04-03T11:55:46.608Z,103293.16
2023-04-03T12:00:51.937Z,103277.69
2023-04-03T12:05:48.406Z,103281.06
2023-04-03T12:11:10.867Z,103273.00
2023-04-03T12:16:19.736Z,103259.50
2023-04-03T12:21:22.301Z,103259.94
2023-04-03T12:26:18.669Z,103249.41
2023-04-03T12:31:16.067Z,103249.84
2023-04-03T12:36:19.348Z,103251.38
2023-04-03T12:41:28.723Z,103246.22
2023-04-03T12:46:33.614Z,103244.50
2023-04-03T12:51:40.995Z,103235.28
2023-04-03T12:56:37.447Z,103236.22
2023-04-03T13:01:33.925Z,103235.16
2023-04-03T13:06:39.846Z,103246.81
2023-04-03T13:11:41.694Z,103231.63
2023-04-03T13:16:42.242Z,103221.59
2023-04-03T13:21:38.834Z,103233.81
2023-04-03T13:26:35.754Z,103226.66
2023-04-03T13:31:35.302Z,103221.19
2023-04-03T13:36:41.357Z,103225.69
2023-04-03T13:41:40.383Z,103220.41
2023-04-03T13:46:36.822Z,103216.41
2023-04-03T13:51:33.240Z,103207.03
2023-04-03T13:56:42.876Z,103200.91
2023-04-03T14:01:55.782Z,103203.09
2023-04-03T14:06:53.217Z,103195.38
2023-04-03T14:11:52.561Z,103191.28
2023-04-03T14:16:54.272Z,103188.41
2023-04-03T14:21:51.909Z,103187.09
2023-04-03T14:26:51.097Z,103174.69
2023-04-03T14:31:48.186Z,103179.25
2023-04-03T14:36:45.780Z,103171.19
2023-04-03T14:41:42.410Z,103174.53
2023-04-03T14:46:55.700Z,103171.56
2023-04-03T14:51:53.626Z,103166.75
2023-04-03T14:56:50.319Z,103168.72
2023-04-03T15:01:47.213Z,103160.28
2023-04-03T15:06:44.137Z,103177.13
2023-04-03T15:11:40.528Z,103168.78
2023-04-03T15:16:37.079Z,103168.03
2023-04-03T15:21:33.538Z,103159.81
2023-04-03T15:26:30.481Z,103158.72
2023-04-03T15:31:27.040Z,103166.16
2023-04-03T15:41:25.989Z,103168.00
2023-04-03T15:46:22.659Z,103157.59
2023-04-03T15:51:19.287Z,103151.47
2023-04-03T15:56:15.914Z,103136.78
2023-04-03T16:01:12.709Z,103145.06
2023-04-03T16:06:09.088Z,103148.38
2023-04-03T16:11:05.646Z,103152.16
2023-04-03T16:16:02.925Z,103143.44
2023-04-03T16:20:59.988Z,103151.34
2023-04-03T16:25:56.869Z,103151.25
2023-04-03T16:30:53.453Z,103149.16
2023-04-03T16:35:51.603Z,103143.53
2023-04-03T16:40:49.311Z,103148.47
2023-04-03T16:45:45.928Z,103142.94
2023-04-03T16:50:42.415Z,103155.00
2023-04-03T16:55:40.514Z,103145.94
2023-04-03T17:00:37.490Z,103155.09
2023-04-03T17:05:34.325Z,103154.53
2023-04-03T17:10:31.410Z,103153.13
2023-04-03T17:15:28.063Z,103167.78
2023-04-03T17:20:24.702Z,103174.91
2023-04-03T17:25:21.249Z,103167.28
2023-04-03T17:30:17.983Z,103168.69
2023-04-03T17:35:14.613Z,103168.69
2023-04-03T17:40:14.143Z,103174.44
2023-04-03T17:45:10.958Z,103165.34
2023-04-03T17:50:08.298Z,103177.84
2023-04-03T17:55:05.289Z,103173.28
2023-04-03T18:00:01.794Z,103182.91
2023-04-03T18:04:58.437Z,103180.91
2023-04-03T18:09:57.135Z,103186.34
2023-04-03T18:14:54.648Z,103189.91
2023-04-03T18:19:51.864Z,103193.97
2023-04-03T18:24:50.809Z,103192.75
2023-04-03T18:29:54.192Z,103198.47
2023-04-03T18:34:51.257Z,103200.97
2023-04-03T18:39:48.036Z,103203.59
2023-04-03T18:44:47.912Z,103197.31
2023-04-03T18:49:44.862Z,103202.72
2023-04-03T18:54:42.755Z,103202.88
2023-04-03T18:59:39.219Z,103210.38
2023-04-03T19:04:36.481Z,103212.41
2023-04-03T19:09:33.354Z,103216.50
2023-04-03T19:14:29.920Z,103208.91
2023-04-03T19:19:26.358Z,103210.22
2023-04-03T19:24:22.785Z,103223.59
2023-04-03T19:29:19.364Z,103209.16
2023-04-03T19:34:15.962Z,103202.50
2023-04-03T19:39:15.725Z,103197.53
2023-04-03T19:44:12.753Z,103198.03
2023-04-03T19:49:10.422Z,103192.50
2023-04-03T19:54:07.170Z,103184.78
2023-04-03T19:59:03.891Z,103179.63
2023-04-03T20:04:00.799Z,103176.34
2023-04-03T20:08:57.549Z,103177.81
2023-04-03T20:13:55.598Z,103164.50
2023-04-03T20:18:54.939Z,103169.47
2023-04-03T20:23:51.801Z,103171.78
2023-04-03T20:28:48.265Z,103168.25
2023-04-03T20:33:46.011Z,103163.66
2023-04-03T20:38:42.517Z,103164.91
2023-04-03T20:43:39.855Z,103168.63
2023-04-03T20:48:36.769Z,103161.53
2023-04-03T20:53:33.233Z,103161.91
2023-04-03T20:58:32.968Z,103156.91
2023-04-03T21:03:37.544Z,103161.03
2023-04-03T21:09:11.954Z,103158.50
2023-04-03T21:14:50.027Z,103158.47
2023-04-03T21:19:57.050Z,103152.63
2023-04-03T21:24:57.986Z,103157.81
2023-04-03T21:29:59.876Z,103159.81
2023-04-03T21:35:09.735Z,103154.81
2023-04-03T21:40:15.263Z,103159.16
2023-04-03T21:45:16.263Z,103162.44
2023-04-03T21:50:18.004Z,103154.06
2023-04-03T21:55:18.164Z,103153.22
2023-04-03T22:00:22.045Z,103146.31
2023-04-03T22:05:21.474Z,103144.78
2023-04-03T22:10:21.549Z,103139.28
2023-04-03T22:15:20.655Z,103142.63
2023-04-03T22:20:19.522Z,103144.31
2023-04-03T22:25:20.750Z,103142.16
2023-04-03T22:30:27.345Z,103138.81
2023-04-03T22:35:27.490Z,103136.69
2023-04-03T22:40:29.016Z,103129.97
2023-04-03T22:45:25.764Z,103126.22
2023-04-03T22:50:36.815Z,103131.13
2023-04-03T22:55:38.669Z,103136.78
2023-04-03T23:00:45.819Z,103140.94
2023-04-03T23:05:43.910Z,103124.72
2023-04-03T23:10:44.594Z,103134.25
2023-04-03T23:15:53.648Z,103133.13
2023-04-03T23:20:55.584Z,103140.50
2023-04-03T23:26:05.228Z,103145.25
2023-04-03T23:31:10.534Z,103138.59
2023-04-03T23:36:13.455Z,103142.94
2023-04-03T23:41:22.897Z,103143.72
2023-04-03T23:46:22.548Z,103138.19
2023-04-03T23:51:27.758Z,103143.06
2023-04-03T23:56:33.584Z,103143.41
